Un Karadeniz — TCTD3 — position and weather

sailwx.info

Track history (hours):
 
Tides and Currents Weather Stations Pressure Air Temp Water Temp Dewpoint Dewpoint Depression Visibility Wind Speed Wind Dir Waves Ship Positions

Un Karadeniz

Last reported at 2015-May-04 04:30 UTC. Time now 2015-May-04 08:02 UTC.
Position N 36°31' E 025°08'.

Length 193 m; draft 5.9 m.

Type: Cargo ship. MMSI: 271002571.

Date/timePositionNaut miles runAvg speedWind from/ knotsBaromVisibWave heightAir tempDewpointWater temp
2015-May-04 04:30N 36°31' E 025°08'1818.7
2015-May-04 03:33N 36°32' E 025°31'2019.0
2015-May-04 02:31N 36°30' E 025°55'1818.5
2015-May-04 01:33N 36°29' E 026°17'4118.9
2015-May-03 23:24N 36°29' E 027°08'  
2015-May-01 17:15N 36°28' E 026°29'1419.1
2015-May-01 16:30N 36°29' E 026°11'1819.1
2015-May-01 15:33N 36°30' E 025°49'2619.3
2015-May-01 14:13N 36°32' E 025°16'1519.5
2015-May-01 13:26N 36°31' E 024°58'29517.4
2015-Apr-30 20:30N 38°59' E 019°35'1919.4
2015-Apr-30 19:30N 39°15' E 019°21'1919.4
2015-Apr-30 18:32N 39°31' E 019°08'1919.8
2015-Apr-30 17:33N 39°48' E 018°54'  
2015-Apr-27 17:32N 40°11' E 018°36'2319.0
2015-Apr-27 16:20N 39°52' E 018°52'1518.9
2015-Apr-27 15:33N 39°39' E 019°02'3919.5
2015-Apr-27 13:33N 39°07' E 019°29'23813.6
2015-Apr-26 20:06N 37°30' E 024°06'  
Track history (hours):
 
Tides and Currents Weather Stations Pressure Air Temp Water Temp Dewpoint Dewpoint Depression Visibility Wind Speed Wind Dir Waves Ship Positions

Un Karadeniz

Last reported at 2015-May-04 04:30 UTC. Time now 2015-May-04 08:02 UTC.
Position N 36°31' E 025°08'.

Length 193 m; draft 5.9 m.

Type: Cargo ship. MMSI: 271002571.

Date/timePositionNaut miles runAvg speedWind from/ knotsBaromVisibWave heightAir tempDewpointWater temp
2015-May-04 04:30N 36°31' E 025°08'1818.7
2015-May-04 03:33N 36°32' E 025°31'2019.0
2015-May-04 02:31N 36°30' E 025°55'1818.5
2015-May-04 01:33N 36°29' E 026°17'4118.9
2015-May-03 23:24N 36°29' E 027°08'  
2015-May-01 17:15N 36°28' E 026°29'1419.1
2015-May-01 16:30N 36°29' E 026°11'1819.1
2015-May-01 15:33N 36°30' E 025°49'2619.3
2015-May-01 14:13N 36°32' E 025°16'1519.5
2015-May-01 13:26N 36°31' E 024°58'29517.4
2015-Apr-30 20:30N 38°59' E 019°35'1919.4
2015-Apr-30 19:30N 39°15' E 019°21'1919.4
2015-Apr-30 18:32N 39°31' E 019°08'1919.8
2015-Apr-30 17:33N 39°48' E 018°54'  
2015-Apr-27 17:32N 40°11' E 018°36'2319.0
2015-Apr-27 16:20N 39°52' E 018°52'1518.9
2015-Apr-27 15:33N 39°39' E 019°02'3919.5
2015-Apr-27 13:33N 39°07' E 019°29'23813.6
2015-Apr-26 20:06N 37°30' E 024°06'  

Dump ship's entire track history